ADDS METAR Data INFO
IDs: Format: Raw Decoded Include TAF

Data at: 2010 UTC 19 Oct 2017

PANN 191953Z AUTO 33004KT 10SM OVC050 M06/M09 A2938 RMK AO2 SNB1859E10 SLP959 P0000 T10611094 TSNO
PANN 191853Z AUTO 33005KT 9SM FEW028 BKN042 OVC050 M07/M09 A2937 RMK AO2 SNE30 SLP957 P0000 T10671089 TSNO
PANN 191811Z AUTO 33004KT 3SM -SN BR OVC036 M07/M09 A2937 RMK AO2 P0000 T10671089 TSNO
PANN 191800Z AUTO 32005KT 1 3/4SM -SN BR BKN038 OVC085 M07/M09 A2937 RMK AO2 VIS 1V4 P0000 T10671089 TSNO
PANN 191753Z AUTO 33004KT 5SM -SN BR BKN042 OVC090 M07/M09 A2937 RMK AO2 SNB51 SLP957 P0000 60000 T10721089 11061 21072 53003 TSNO
PANN 191653Z AUTO 30004KT 10SM FEW026 OVC085 M07/M09 A2936 RMK AO2 SLP954 T10721094 TSNO
PANN 191650Z AUTO 30004KT 10SM SCT026 OVC085 M07/M09 A2936 RMK AO2 TSNO
PANN 191553Z AUTO 29003KT 10SM OVC025 M07/M09 A2936 RMK AO2 SLP953 T10721089 TSNO
PANN 191453Z AUTO 24003KT 10SM OVC023 M07/M08 A2936 RMK AO2 SLP951 T10671083 55001 TSNO
PANN 191428Z AUTO 00000KT 10SM BKN023 OVC090 M07/M08 A2935 RMK AO2 T10671083 TSNO
PANN 191353Z AUTO 33004KT 10SM BKN024 OVC034 M06/M08 A2935 RMK AO2 SLP950 T10611083 TSNO
PANN 191153Z AUTO 00000KT 10SM OVC027 M06/M08 A2936 RMK AO2 SLP951 60001 70005 T10611078 11044 21072 50004 TSNO
PANN 191053Z AUTO 00000KT 10SM FEW032 OVC090 M06/M08 A2936 RMK AO2 SLP952 T10611078 TSNO
PANN 190953Z AUTO 00000KT 10SM OVC090 M06/M07 A2935 RMK AO2 SLP950 T10611072 TSNO
PANN 190842Z AUTO 00000KT 10SM SCT010 BKN032 OVC090 M05/M06 A2935 RMK AO2 SNE17 P0000 T10501061 TSNO
PANN 190837Z AUTO 00000KT 10SM BKN009 BKN034 OVC090 M05/M06 A2935 RMK AO2 SNE17 P0000 T10501061 TSNO
PANN 190812Z AUTO 00000KT 7SM -SN FEW009 BKN034 OVC090 M06/M07 A2935 RMK AO2 P0000 T10561067 TSNO
PANN 190803Z AUTO 00000KT 5SM -SN BR BKN034 OVC090 M05/M07 A2935 RMK AO2 P0000 T10501067 TSNO
PANN 190753Z AUTO 00000KT 2 1/2SM -SN BR OVC030 M05/M07 A2935 RMK AO2 SLP947 P0001 T10501067 TSNO
PANN 190740Z AUTO 33003KT 1 3/4SM -SN BR OVC030 M05/M07 A2934 RMK AO2 P0000 T10501067 TSNO
PANN 190653Z AUTO 32005KT 5SM -SN BR FEW008 FEW033 OVC042 M05/M07 A2933 RMK AO2 SLP943 P0000 T10501067 TSNO
PANN 190650Z AUTO 32005KT 4SM -SN BR FEW008 SCT033 OVC042 M05/M07 A2933 RMK AO2 P0000 TSNO
PANN 190643Z AUTO 31005KT 2 1/2SM -SN BR FEW008 OVC034 M05/M06 A2933 RMK AO2 P0000 T10501061 TSNO
PANN 190635Z AUTO 31003KT 3SM -SN BR FEW008 OVC030 M04/M06 A2933 RMK AO2 P0000 T10441056 TSNO
PANN 190633Z AUTO 32003KT 2 1/2SM -SN BR FEW008 BKN027 OVC033 M04/M06 A2933 RMK AO2 P0000 T10441061 TSNO
PANN 190626Z AUTO 35004KT 1 1/2SM -SN BR SCT017 BKN028 OVC033 M04/M06 A2933 RMK AO2 P0000 T10441061 TSNO
PANN 190617Z AUTO 32005KT 2SM -SN BR OVC028 M04/M06 A2933 RMK AO2 P0000 T10441061 TSNO
PANN 190553Z AUTO 32005KT 7SM -SN OVC025 M04/M06 A2932 RMK AO2 SNE08B42 SLP940 P0000 60002 T10441061 11017 21044 51009 TSNO
PANN 190507Z AUTO 32006KT 8SM -SN FEW012 BKN029 OVC085 M04/M06 A2932 RMK AO2 P0000 T10391056 TSNO
PANN 190431Z AUTO 31005KT 4SM -SN BR FEW013 OVC021 M04/M06 A2931 RMK AO2 P0001 T10391056 TSNO
PANN 190417Z AUTO 31005KT 2SM -SN BR SCT014 OVC019 M03/M05 A2931 RMK AO2 P0001 T10331050 TSNO
PANN 190400Z AUTO 32005KT 1 1/2SM -SN BR BKN014 BKN022 OVC036 M03/M05 A2930 RMK AO2 P0000 T10331050 TSNO
PANN 190353Z AUTO 30006KT 2 1/2SM -SN FEW016 BKN029 OVC036 M03/M06 A2930 RMK AO2 SNE21B41 SLP931 P0000 T10281056 TSNO
PANN 190302Z AUTO 27004KT 7SM -SN FEW029 OVC034 M03/M04 A2930 RMK AO2 P0000 T10281044 TSNO
PANN 190253Z AUTO VRB03KT 4SM -SN BR OVC029 M03/M04 A2930 RMK AO2 SNB04 SLP929 P0000 60001 T10281044 53003 TSNO
PANN 190229Z AUTO 28005KT 2 1/2SM -SN BR FEW017 OVC025 M03/M05 A2929 RMK AO2 SNB04 P0000 T10281050 TSNO
PANN 190207Z AUTO 29004KT 4SM -SN FEW015 BKN023 OVC090 M02/M05 A2929 RMK AO2 SNB04 P0000 T10221050 TSNO
PANN 190153Z AUTO VRB04KT 9SM SCT021 OVC090 M02/M05 A2929 RMK AO2 SLP927 T10221050 TSNO
PANN 190133Z AUTO 29006KT 10SM BKN019 BKN050 OVC090 M02/M05 A2929 RMK AO2 T10221050 TSNO
PANN 190053Z AUTO 30007KT 10SM SCT016 BKN070 OVC090 M02/M06 A2929 RMK AO2 SNE45 SLP926 P0001 T10171056 TSNO
PANN 190049Z AUTO 29005KT 9SM SCT016 BKN034 OVC090 M02/M04 A2929 RMK AO2 SNE45 P0001 TSNO
PANN 190037Z AUTO 31004KT 3SM -SN BR BKN015 OVC028 M02/M04 A2929 RMK AO2 P0001 T10171039 TSNO
PANN 190020Z AUTO 29005KT 1 1/4SM -SN BR SCT015 OVC029 M02/M04 A2928 RMK AO2 P0000 T10171039 TSNO
PANN 190011Z AUTO 30004KT 2 1/2SM -SN BR FEW013 OVC029 M02/M04 A2928 RMK AO2 P0000 T10171039 TSNO
PANN 182353Z AUTO 32007KT 2SM -SN BR BKN013 BKN022 OVC027 M02/M04 A2929 RMK AO2 SLP926 P0001 60002 T10171039 11011 21022 58006 TSNO
PANN 182347Z AUTO 30005KT 1 3/4SM -SN BR BKN013 OVC022 M01/M03 A2928 RMK AO2 P0001 TSNO
PANN 182338Z AUTO VRB03KT 3SM -SN BR BKN013 OVC022 M02/M03 A2928 RMK AO2 P0001 T10171028 TSNO
PANN 182325Z AUTO VRB03KT 2SM -SN BR SCT013 OVC022 M02/M03 A2929 RMK AO2 P0001 T10171033 TSNO
PANN 182310Z AUTO VRB04KT 3/4SM -SN BR BKN016 OVC023 M02/M04 A2929 RMK AO2 P0001 T10171039 TSNO
PANN 182301Z AUTO 27004KT 2 1/2SM -SN BR FEW011 BKN016 OVC035 M01/M03 A2929 RMK AO2 P0000 T10111033 TSNO
PANN 182253Z AUTO 26004KT 3SM -SN BR BKN014 BKN028 OVC041 M01/M03 A2929 RMK AO2 SLP928 P0000 T10111033 TSNO
PANN 182230Z AUTO 27004KT 3SM -SN FEW014 BKN032 OVC045 M01/M04 A2929 RMK AO2 P0000 T10111039 TSNO
PANN 182224Z AUTO 00000KT 2 1/2SM -SN SCT014 SCT021 OVC029 M01/M04 A2929 RMK AO2 P0000 T10111039 TSNO
PANN 182210Z AUTO 00000KT 2SM -SN BR BKN014 BKN020 OVC027 M01/M03 A2930 RMK AO2 P0000 T10111033 TSNO
PANN 182202Z AUTO VRB04KT 1 3/4SM -SN SCT014 BKN023 OVC028 M01/M04 A2930 RMK AO2 P0000 T10111039 TSNO
PANN 182200Z AUTO VRB04KT 2SM -SN BKN014 BKN019 OVC025 M01/M04 A2930 RMK AO2 P0000 T10111039 TSNO
PANN 182153Z AUTO 26004KT 4SM -SN SCT016 OVC027 M01/M04 A2930 RMK AO2 SNE12B22 SLP931 P0000 T10111039 TSNO
PANN 182143Z AUTO VRB04KT 4SM -SN BKN016 OVC023 M01/M04 A2930 RMK AO2 SNE12B22 P0000 T10111039 TSNO
PANN 182134Z AUTO 24004KT 2SM -SN BR BKN016 OVC024 M02/M04 A2930 RMK AO2 SNE12B22 P0000 T10171039 TSNO
PANN 182112Z AUTO VRB04KT 7SM OVC013 M02/M04 A2931 RMK AO2 SNE12 P0000 T10171039 TSNO
PANN 182102Z AUTO 27004KT 2SM -SN BR BKN013 OVC029 M02/M03 A2930 RMK AO2 P0000 T10171033 TSNO
PANN 182053Z AUTO VRB04KT 3SM -SN BR BKN011 OVC031 M02/M04 A2930 RMK AO2 SNE07B28 SLP932 P0000 60001 T10171039 57002 TSNO
PANN 182049Z AUTO VRB03KT 4SM -SN BR BKN011 OVC034 M02/M04 A2930 RMK AO2 SNE07B28 P0000 TSNO
PANN 182042Z AUTO 29005KT 2 1/2SM -SN BR SCT011 BKN036 OVC050 M02/M04 A2930 RMK AO2 SNE07B28 P0000 T10171039 TSNO
PANN 182035Z AUTO 28004KT 1 3/4SM -SN BR BKN011 BKN032 OVC055 M02/M03 A2930 RMK AO2 SNE07B28 P0000 T10171033 TSNO
PANN 182002Z AUTO VRB05KT 3SM -SN BR BKN010 OVC036 M02/M03 A2931 RMK AO2 P0000 T10171033 TSNO
PANN 181949Z AUTO VRB05KT 1 3/4SM -SN BR BKN010 BKN029 OVC035 M02/M03 A2931 RMK AO2 SLP933 P0001 T10171033 TSNO
PANN 181948Z AUTO VRB04KT 1 3/4SM -SN BR BKN010 BKN029 OVC035 M02/M03 A2931 RMK AO2 P0001 TSNO
PANN 181942Z AUTO VRB04KT 3SM -SN BR BKN010 BKN029 OVC033 M02/M03 A2931 RMK AO2 P0000 T10171033 TSNO
PANN 181933Z AUTO VRB04KT 3SM -SN BR SCT009 SCT021 OVC031 M02/M03 A2931 RMK AO2 P0000 T10171033 TSNO
PANN 181853Z AUTO VRB04KT 1 1/2SM -SN BR FEW009 BKN037 OVC055 M02/M04 A2931 RMK AO2 SNE1759B37 SLP933 P0000 T10221039 TSNO
PANN 181846Z AUTO VRB06KT 1 3/4SM -SN BR BKN041 OVC060 M02/M04 A2931 RMK AO2 SNE1759B37 P0000 T10221039 TSNO
PANN 181829Z AUTO VRB04KT 9SM SCT025 OVC060 M02/M04 A2931 RMK AO2 SNE1759 P0000 T10221039 TSNO
PANN 181807Z AUTO 25003KT 9SM BKN025 BKN070 OVC080 M02/M04 A2931 RMK AO2 SNE1759 P0000 T10221039 TSNO
PANN 181800Z AUTO 25005KT 7SM SCT023 BKN070 OVC080 M02/M04 A2931 RMK AO2 SNE1759 P0000 T10221039 TSNO
PANN 181753Z AUTO VRB03KT 6SM -SN BR BKN023 BKN070 OVC080 M02/M04 A2931 RMK AO2 SNB49 SLP934 P0000 60000 T10221044 11011 21022 56005 TSNO
PANN 181653Z AUTO VRB04KT 10SM BKN019 OVC075 M02/M05 A2931 RMK AO2 SLP934 T10171050 TSNO
PANN 181521Z AUTO 25005KT 10SM FEW017 BKN028 OVC060 M02/M05 A2932 RMK AO2 T10171050 TSNO
PANN 181453Z AUTO 24005KT 9SM OVC060 M01/M05 A2932 RMK AO2 SNB40E49 SLP939 P0000 60000 T10111050 56010 TSNO
PANN 181353Z AUTO 00000KT 10SM OVC050 M02/M04 A2933 RMK AO2 SLP941 T10171039 TSNO
PANN 181253Z AUTO 00000KT 10SM OVC055 M01/M04 A2934 RMK AO2 SLP946 T10111039 TSNO
PANN 181153Z AUTO 24005KT 10SM OVC060 M01/M04 A2935 RMK AO2 SLP949 T10111044 11006 21011 56006 TSNO
PANN 181053Z AUTO 00000KT 10SM OVC060 M01/M03 A2936 RMK AO2 SLP951 T10111033 TSNO
PANN 180953Z AUTO 00000KT 10SM BKN045 OVC050 M01/M02 A2937 RMK AO2 SLP953 T10111022 TSNO